createdAt,value
2022-09-02T00:00:20.586Z,1.30
2022-09-02T00:01:19.566Z,1.30
2022-09-02T00:02:19.597Z,1.40
2022-09-02T00:03:19.749Z,1.20
2022-09-02T00:04:19.577Z,1.50
2022-09-02T00:05:19.526Z,1.50
2022-09-02T00:06:19.521Z,1.20
2022-09-02T00:07:19.515Z,1.40
2022-09-02T00:08:19.492Z,1.40
2022-09-02T00:09:19.516Z,1.30
2022-09-02T00:10:19.477Z,1.30
2022-09-02T00:11:19.463Z,1.30
2022-09-02T00:12:19.460Z,1.30
2022-09-02T00:13:19.550Z,1.40
2022-09-02T00:14:19.452Z,1.40
2022-09-02T00:15:19.420Z,1.50
2022-09-02T00:16:19.420Z,1.40
2022-09-02T00:17:19.407Z,1.70
2022-09-02T00:18:19.400Z,1.30
2022-09-02T00:19:19.409Z,1.40
2022-09-02T00:20:19.377Z,1.50
2022-09-02T00:21:19.373Z,1.50
2022-09-02T00:22:19.354Z,1.20
2022-09-02T00:23:19.405Z,1.30
2022-09-02T00:24:19.359Z,1.50
2022-09-02T00:25:19.334Z,1.70
2022-09-02T00:26:19.316Z,1.40
2022-09-02T00:27:19.345Z,1.20
2022-09-02T00:28:19.329Z,1.60
2022-09-02T00:29:19.306Z,1.40
2022-09-02T00:30:19.283Z,1.40
2022-09-02T00:31:19.326Z,1.30
2022-09-02T00:32:19.272Z,1.40
2022-09-02T00:33:19.272Z,1.40
2022-09-02T00:34:19.251Z,1.40
2022-09-02T00:35:19.229Z,1.20
2022-09-02T00:36:19.222Z,1.40
2022-09-02T00:37:19.206Z,1.40
2022-09-02T00:38:19.188Z,1.50
2022-09-02T00:39:19.199Z,1.50
2022-09-02T00:40:19.244Z,1.50
2022-09-02T00:41:19.155Z,1.50
2022-09-02T00:42:19.150Z,1.60
2022-09-02T00:43:19.167Z,1.50
2022-09-02T00:44:19.155Z,1.50
2022-09-02T00:45:19.128Z,1.30
2022-09-02T00:46:19.111Z,1.30
2022-09-02T00:47:19.103Z,1.30
2022-09-02T00:48:19.096Z,1.50
2022-09-02T00:49:19.108Z,1.40
2022-09-02T00:50:19.064Z,1.50
2022-09-02T00:51:19.053Z,1.50
2022-09-02T00:52:19.059Z,1.40
2022-09-02T00:53:19.107Z,1.40
2022-09-02T00:54:19.054Z,1.40
2022-09-02T00:55:19.017Z,1.20
2022-09-02T00:56:19.016Z,1.30
2022-09-02T00:57:18.995Z,1.30
2022-09-02T00:58:18.979Z,1.50
2022-09-02T00:59:18.998Z,1.40
2022-09-02T01:00:18.970Z,1.40
2022-09-02T01:01:19.070Z,1.40
2022-09-02T01:02:18.999Z,1.50
2022-09-02T01:03:18.959Z,1.50
2022-09-02T01:04:18.942Z,1.50
2022-09-02T01:05:18.916Z,1.30
2022-09-02T01:06:18.911Z,1.40
2022-09-02T01:07:18.893Z,1.20
2022-09-02T01:08:18.893Z,1.40
2022-09-02T01:09:18.904Z,1.50
2022-09-02T01:10:18.868Z,1.50
2022-09-02T01:11:18.893Z,1.50
2022-09-02T01:12:18.866Z,1.20
2022-09-02T01:13:18.840Z,1.20
2022-09-02T01:14:18.849Z,1.50
2022-09-02T01:15:18.814Z,1.60
2022-09-02T01:16:18.860Z,1.20
2022-09-02T01:17:18.806Z,1.40
2022-09-02T01:18:18.777Z,1.30
2022-09-02T01:19:18.796Z,1.50
2022-09-02T01:20:18.793Z,1.40
2022-09-02T01:21:18.806Z,1.50
2022-09-02T01:22:18.754Z,1.40
2022-09-02T01:23:18.804Z,1.50
2022-09-02T01:24:18.745Z,1.60
2022-09-02T01:25:18.719Z,1.50
2022-09-02T01:26:18.704Z,1.50
2022-09-02T01:27:18.690Z,1.30
2022-09-02T01:28:19.699Z,1.40
2022-09-02T01:29:18.695Z,1.30
2022-09-02T01:30:18.674Z,1.40
2022-09-02T01:31:18.715Z,1.40
2022-09-02T01:32:18.645Z,1.30
2022-09-02T01:33:18.702Z,1.30
2022-09-02T01:34:18.637Z,1.40
2022-09-02T01:35:18.620Z,1.30
2022-09-02T01:36:18.594Z,1.20
2022-09-02T01:37:18.584Z,1.30
2022-09-02T01:38:18.579Z,1.30
2022-09-02T01:39:18.586Z,1.40
2022-09-02T01:40:18.620Z,1.40
2022-09-02T01:41:18.552Z,1.50
2022-09-02T01:42:18.550Z,1.50
2022-09-02T01:43:18.542Z,1.30
2022-09-02T01:44:18.541Z,1.50
2022-09-02T01:45:18.514Z,1.40
2022-09-02T01:46:18.519Z,1.50
2022-09-02T01:47:18.491Z,1.50
2022-09-02T01:48:21.498Z,1.30
2022-09-02T01:49:18.525Z,1.40
2022-09-02T01:50:18.463Z,1.50
2022-09-02T01:51:18.464Z,1.40
2022-09-02T01:52:18.441Z,1.50
2022-09-02T01:53:18.515Z,1.30
2022-09-02T01:54:18.434Z,1.30
2022-09-02T01:55:18.414Z,1.40
2022-09-02T01:56:18.452Z,1.40
2022-09-02T01:57:18.397Z,1.40
2022-09-02T01:58:18.380Z,1.40
2022-09-02T01:59:18.392Z,1.70
2022-09-02T02:00:18.359Z,1.50
2022-09-02T02:01:18.433Z,1.30
2022-09-02T02:02:18.403Z,1.50
2022-09-02T02:03:18.332Z,1.50
2022-09-02T02:04:18.338Z,1.40
2022-09-02T02:05:18.305Z,1.40
2022-09-02T02:06:18.287Z,1.40
2022-09-02T02:07:18.281Z,1.40
2022-09-02T02:08:18.278Z,1.50
2022-09-02T02:09:18.282Z,1.50
2022-09-02T02:10:18.253Z,1.40
2022-09-02T02:11:18.239Z,1.60
2022-09-02T02:12:18.232Z,1.50
2022-09-02T02:13:18.227Z,1.60
2022-09-02T02:14:18.241Z,1.30
2022-09-02T02:15:18.200Z,1.60
2022-09-02T02:16:18.221Z,1.50
2022-09-02T02:17:18.178Z,1.40
2022-09-02T02:18:18.189Z,1.50
2022-09-02T02:19:18.174Z,1.40
2022-09-02T02:20:18.148Z,1.50
2022-09-02T02:21:18.137Z,1.40
2022-09-02T02:22:18.121Z,1.50
2022-09-02T02:23:18.147Z,1.60
2022-09-02T02:24:18.129Z,1.20
2022-09-02T02:25:18.100Z,1.50
2022-09-02T02:26:18.104Z,1.30
2022-09-02T02:27:18.079Z,1.40
2022-09-02T02:28:18.065Z,1.50
2022-09-02T02:29:18.079Z,1.60
2022-09-02T02:30:18.048Z,1.40
2022-09-02T02:31:18.098Z,1.50
2022-09-02T02:32:18.027Z,1.50
2022-09-02T02:33:18.033Z,1.60
2022-09-02T02:34:18.032Z,1.40
2022-09-02T02:35:17.997Z,1.30
2022-09-02T02:36:17.988Z,1.50
2022-09-02T02:37:21.088Z,1.40
2022-09-02T02:38:17.977Z,1.30
2022-09-02T02:39:17.972Z,1.60
2022-09-02T02:40:18.043Z,1.40
2022-09-02T02:41:17.928Z,1.50
2022-09-02T02:42:17.929Z,1.50
2022-09-02T02:43:18.008Z,1.30
2022-09-02T02:44:17.924Z,1.50
2022-09-02T02:45:17.883Z,1.40
2022-09-02T02:46:17.963Z,1.50
2022-09-02T02:47:17.871Z,1.50
2022-09-02T02:48:17.871Z,1.30
2022-09-02T02:49:17.865Z,1.50
2022-09-02T02:50:17.830Z,1.50
2022-09-02T02:51:18.859Z,1.50
2022-09-02T02:52:17.818Z,1.50
2022-09-02T02:53:17.864Z,1.50
2022-09-02T02:54:17.815Z,1.70
2022-09-02T02:55:17.860Z,1.70
2022-09-02T02:56:17.771Z,1.70
2022-09-02T02:57:17.760Z,1.70
2022-09-02T02:58:17.748Z,1.50
2022-09-02T02:59:17.766Z,1.60
2022-09-02T03:00:17.800Z,1.70
2022-09-02T03:01:17.762Z,1.40
2022-09-02T03:02:17.856Z,1.50
2022-09-02T03:03:17.777Z,1.50
2022-09-02T03:04:17.744Z,1.50
2022-09-02T03:05:17.680Z,1.50
2022-09-02T03:06:33.279Z,1.50
2022-09-02T03:07:17.651Z,1.40
2022-09-02T03:08:17.643Z,1.50
2022-09-02T03:09:17.649Z,1.40
2022-09-02T03:10:17.620Z,1.60
2022-09-02T03:11:17.611Z,1.40
2022-09-02T03:12:17.592Z,1.60
2022-09-02T03:13:17.612Z,1.60
2022-09-02T03:14:17.603Z,1.40
2022-09-02T03:15:17.577Z,1.30
2022-09-02T03:16:17.612Z,1.20
2022-09-02T03:17:17.549Z,1.50
2022-09-02T03:18:17.554Z,1.40
2022-09-02T03:19:17.552Z,1.40
2022-09-02T03:20:17.523Z,1.30
2022-09-02T03:21:17.512Z,1.30
2022-09-02T03:22:17.502Z,1.40
2022-09-02T03:23:17.513Z,1.10
2022-09-02T03:24:17.502Z,1.50
2022-09-02T03:25:17.525Z,1.40
2022-09-02T03:26:18.583Z,1.40
2022-09-02T03:27:17.466Z,1.40
2022-09-02T03:28:17.440Z,1.60
2022-09-02T03:29:17.450Z,1.30
2022-09-02T03:30:17.421Z,1.50
2022-09-02T03:31:17.429Z,1.70
2022-09-02T03:32:17.400Z,1.60
2022-09-02T03:33:17.419Z,1.40
2022-09-02T03:34:17.402Z,1.40
2022-09-02T03:35:17.382Z,1.30
2022-09-02T03:36:17.363Z,1.50
2022-09-02T03:37:17.351Z,1.40
2022-09-02T03:38:17.343Z,1.50
2022-09-02T03:39:17.348Z,1.50
2022-09-02T03:40:18.356Z,1.50
2022-09-02T03:41:17.319Z,1.30
2022-09-02T03:42:19.332Z,1.40
2022-09-02T03:43:17.380Z,1.50
2022-09-02T03:44:17.302Z,1.60
2022-09-02T03:45:17.277Z,1.40
2022-09-02T03:46:17.316Z,1.30
2022-09-02T03:47:17.250Z,1.60
2022-09-02T03:48:17.237Z,1.60
2022-09-02T03:49:17.242Z,1.50
2022-09-02T03:50:17.219Z,1.40
2022-09-02T03:51:17.211Z,1.40
2022-09-02T03:52:17.189Z,1.50
2022-09-02T03:53:19.947Z,1.50
2022-09-02T03:54:17.201Z,1.50
2022-09-02T03:55:17.173Z,1.50
2022-09-02T03:56:17.158Z,1.50
2022-09-02T03:57:17.152Z,1.40
2022-09-02T03:58:17.146Z,1.40
2022-09-02T03:59:17.154Z,1.50
2022-09-02T04:00:17.130Z,1.60
2022-09-02T04:01:17.211Z,1.60
2022-09-02T04:02:17.221Z,1.40
2022-09-02T04:03:17.163Z,1.50
2022-09-02T04:04:22.192Z,1.50
2022-09-02T04:05:18.079Z,1.30
2022-09-02T04:06:17.066Z,1.50
2022-09-02T04:07:17.053Z,1.70
2022-09-02T04:08:17.033Z,1.60
2022-09-02T04:09:17.058Z,1.40
2022-09-02T04:10:17.014Z,1.60
2022-09-02T04:11:17.008Z,1.60
2022-09-02T04:12:16.994Z,1.80
2022-09-02T04:13:17.064Z,1.60
2022-09-02T04:14:16.993Z,1.40
2022-09-02T04:15:16.968Z,1.60
2022-09-02T04:16:17.008Z,1.50
2022-09-02T04:17:16.948Z,1.50
2022-09-02T04:18:16.931Z,1.80
2022-09-02T04:19:16.947Z,1.70
2022-09-02T04:20:16.903Z,1.60
2022-09-02T04:21:16.906Z,1.80
2022-09-02T04:22:16.892Z,1.30
2022-09-02T04:23:16.885Z,1.40
2022-09-02T04:24:16.927Z,1.50
2022-09-02T04:25:16.882Z,1.60
2022-09-02T04:26:16.848Z,1.80
2022-09-02T04:27:16.841Z,1.50
2022-09-02T04:28:16.830Z,1.90
2022-09-02T04:29:16.840Z,1.70
2022-09-02T04:30:17.571Z,1.50
2022-09-02T04:31:16.857Z,1.60
2022-09-02T04:32:16.785Z,1.50
2022-09-02T04:33:16.784Z,1.60
2022-09-02T04:34:16.794Z,1.80
2022-09-02T04:35:16.755Z,1.50
2022-09-02T04:36:16.750Z,1.60
2022-09-02T04:37:16.777Z,1.40
2022-09-02T04:38:16.731Z,1.50
2022-09-02T04:39:16.738Z,1.60
2022-09-02T04:40:16.746Z,1.50
2022-09-02T04:41:16.702Z,1.60
2022-09-02T04:42:16.686Z,1.50
2022-09-02T04:43:16.684Z,1.70
2022-09-02T04:44:16.686Z,1.50
2022-09-02T04:45:16.661Z,1.60
2022-09-02T04:46:16.718Z,1.50
2022-09-02T04:47:16.650Z,1.60
2022-09-02T04:48:16.620Z,1.70
2022-09-02T04:49:16.634Z,1.70
2022-09-02T04:50:16.603Z,1.70
2022-09-02T04:51:16.595Z,1.80
2022-09-02T04:52:16.586Z,1.50
2022-09-02T04:53:16.563Z,1.80
2022-09-02T04:54:16.589Z,1.60
2022-09-02T04:55:16.565Z,1.50
2022-09-02T04:56:16.553Z,1.50
2022-09-02T04:57:16.532Z,1.70
2022-09-02T04:58:16.518Z,1.70
2022-09-02T04:59:16.535Z,1.60
2022-09-02T05:00:16.503Z,1.80
2022-09-02T05:01:16.555Z,1.60
2022-09-02T05:02:16.648Z,1.60
2022-09-02T05:03:16.467Z,1.70
2022-09-02T05:04:16.480Z,1.60
2022-09-02T05:05:16.451Z,1.70
2022-09-02T05:06:16.444Z,1.60
2022-09-02T05:07:16.435Z,1.70
2022-09-02T05:08:16.421Z,1.60
2022-09-02T05:09:16.428Z,1.80
2022-09-02T05:10:16.404Z,1.60
2022-09-02T05:11:16.394Z,1.60
2022-09-02T05:12:16.381Z,1.70
2022-09-02T05:13:16.361Z,1.70
2022-09-02T05:14:16.412Z,1.60
2022-09-02T05:15:16.355Z,1.60
2022-09-02T05:16:16.349Z,1.80
2022-09-02T05:17:16.328Z,1.70
2022-09-02T05:18:16.326Z,1.70
2022-09-02T05:19:16.405Z,1.80
2022-09-02T05:20:16.300Z,1.60
2022-09-02T05:21:16.285Z,1.90
2022-09-02T05:22:16.277Z,1.60
2022-09-02T05:23:16.264Z,1.90
2022-09-02T05:24:16.275Z,1.60
2022-09-02T05:25:16.232Z,1.90
2022-09-02T05:26:16.240Z,1.80
2022-09-02T05:27:16.410Z,1.60
2022-09-02T05:28:16.212Z,1.60
2022-09-02T05:29:16.210Z,1.60
2022-09-02T05:30:16.197Z,1.60
2022-09-02T05:31:16.247Z,1.70
2022-09-02T05:32:16.169Z,1.90
2022-09-02T05:33:16.167Z,1.80
2022-09-02T05:34:16.176Z,1.60
2022-09-02T05:35:16.160Z,1.60
2022-09-02T05:36:16.141Z,1.50
2022-09-02T05:37:16.127Z,1.70
2022-09-02T05:38:16.124Z,1.70
2022-09-02T05:39:16.145Z,1.70
2022-09-02T05:40:16.151Z,1.50
2022-09-02T05:41:16.101Z,1.70
2022-09-02T05:42:16.085Z,1.90
2022-09-02T05:43:16.067Z,1.60
2022-09-02T05:44:16.077Z,1.70
2022-09-02T05:45:16.676Z,1.70
2022-09-02T05:46:16.080Z,1.80
2022-09-02T05:47:16.028Z,1.70
2022-09-02T05:48:16.024Z,1.80
2022-09-02T05:49:16.030Z,1.80
2022-09-02T05:50:16.007Z,1.80
2022-09-02T05:51:15.991Z,1.80
2022-09-02T05:52:15.990Z,1.80
2022-09-02T05:53:16.053Z,1.60
2022-09-02T05:54:15.983Z,1.70
2022-09-02T05:55:15.957Z,1.80
2022-09-02T05:56:15.946Z,1.70
2022-09-02T05:57:15.925Z,1.70
2022-09-02T05:58:15.927Z,1.90
2022-09-02T05:59:15.932Z,1.70
2022-09-02T06:00:18.255Z,1.70
2022-09-02T06:01:15.891Z,1.80
2022-09-02T06:02:15.970Z,1.70
2022-09-02T06:03:16.024Z,1.80
2022-09-02T06:04:15.940Z,1.80
2022-09-02T06:05:15.837Z,2.00
2022-09-02T06:06:15.847Z,1.90
2022-09-02T06:07:15.838Z,1.50
2022-09-02T06:08:15.825Z,2.10
2022-09-02T06:09:15.831Z,1.70
2022-09-02T06:10:15.804Z,1.90
2022-09-02T06:11:15.799Z,1.90
2022-09-02T06:12:15.787Z,1.70
2022-09-02T06:13:15.778Z,1.70
2022-09-02T06:14:15.781Z,1.80
2022-09-02T06:15:15.752Z,1.70
2022-09-02T06:16:16.785Z,1.80
2022-09-02T06:17:15.734Z,1.80
2022-09-02T06:18:15.720Z,2.00
2022-09-02T06:19:20.150Z,1.90
2022-09-02T06:20:16.823Z,2.00
2022-09-02T06:21:15.701Z,2.00
2022-09-02T06:22:15.688Z,1.70
2022-09-02T06:23:15.672Z,2.10
2022-09-02T06:24:15.682Z,1.70
2022-09-02T06:25:15.659Z,1.90
2022-09-02T06:26:15.640Z,2.10
2022-09-02T06:27:15.633Z,1.90
2022-09-02T06:28:15.624Z,1.80
2022-09-02T06:29:15.637Z,1.90
2022-09-02T06:30:15.613Z,1.70
2022-09-02T06:31:15.638Z,1.80
2022-09-02T06:32:15.581Z,1.70
2022-09-02T06:33:15.572Z,1.90
2022-09-02T06:34:16.583Z,1.90
2022-09-02T06:35:15.559Z,1.60
2022-09-02T06:36:15.524Z,2.00
2022-09-02T06:37:15.529Z,2.00
2022-09-02T06:38:15.532Z,1.80
2022-09-02T06:39:15.532Z,1.70
2022-09-02T06:40:15.619Z,1.90
2022-09-02T06:41:15.494Z,1.70
2022-09-02T06:42:15.485Z,1.90
2022-09-02T06:43:15.482Z,2.00
2022-09-02T06:44:15.481Z,1.80
2022-09-02T06:45:15.462Z,1.70
2022-09-02T06:46:15.502Z,1.90
2022-09-02T06:47:15.440Z,2.10
2022-09-02T06:48:15.434Z,2.10
2022-09-02T06:49:15.444Z,1.90
2022-09-02T06:50:15.413Z,1.90
2022-09-02T06:51:15.397Z,1.90
2022-09-02T06:52:15.394Z,2.00
2022-09-02T06:53:15.376Z,2.00
2022-09-02T06:54:15.385Z,1.90
2022-09-02T06:55:15.355Z,2.30
2022-09-02T06:56:15.342Z,1.90
2022-09-02T06:57:15.336Z,1.80
2022-09-02T06:58:15.323Z,2.00
2022-09-02T06:59:15.340Z,2.10
2022-09-02T07:00:15.304Z,2.00
2022-09-02T07:01:15.383Z,2.10
2022-09-02T07:03:15.289Z,2.20
2022-09-02T07:04:15.286Z,2.30
2022-09-02T07:05:16.060Z,1.80
2022-09-02T07:06:15.241Z,2.10
2022-09-02T07:07:15.257Z,2.10
2022-09-02T07:08:15.219Z,1.90
2022-09-02T07:09:15.235Z,2.00
2022-09-02T07:10:15.205Z,1.90
2022-09-02T07:11:15.252Z,1.90
2022-09-02T07:12:15.181Z,2.00
2022-09-02T07:13:15.310Z,2.00
2022-09-02T07:14:15.189Z,2.10
2022-09-02T07:15:15.172Z,2.50
2022-09-02T07:16:18.374Z,2.30
2022-09-02T07:17:16.202Z,1.90
2022-09-02T07:18:15.127Z,2.00
2022-09-02T07:19:19.912Z,1.90
2022-09-02T07:20:16.107Z,2.00
2022-09-02T07:21:15.094Z,2.00
2022-09-02T07:22:18.056Z,2.00
2022-09-02T07:23:15.071Z,2.20
2022-09-02T07:24:15.080Z,1.90
2022-09-02T07:25:15.063Z,2.00
2022-09-02T07:26:15.039Z,1.90
2022-09-02T07:27:15.037Z,2.00
2022-09-02T07:28:15.024Z,2.10
2022-09-02T07:29:15.033Z,1.80
2022-09-02T07:30:15.008Z,2.00
2022-09-02T07:31:15.070Z,2.00
2022-09-02T07:32:14.989Z,2.00
2022-09-02T07:33:14.979Z,2.00
2022-09-02T07:34:14.979Z,1.80
2022-09-02T07:35:14.958Z,2.00
2022-09-02T07:36:14.945Z,2.10
2022-09-02T07:37:14.934Z,2.10
2022-09-02T07:38:14.920Z,2.10
2022-09-02T07:39:14.940Z,2.00
2022-09-02T07:40:14.935Z,1.90
2022-09-02T07:41:14.898Z,2.00
2022-09-02T07:42:14.971Z,2.20
2022-09-02T07:43:14.879Z,1.90
2022-09-02T07:44:14.884Z,2.00
2022-09-02T07:45:14.855Z,1.80
2022-09-02T07:46:14.944Z,2.30
2022-09-02T07:47:14.833Z,2.10
2022-09-02T07:48:14.814Z,2.00
2022-09-02T07:49:14.829Z,2.00
2022-09-02T07:50:16.986Z,2.00
2022-09-02T07:51:15.792Z,1.90
2022-09-02T07:52:14.784Z,2.10
2022-09-02T07:53:15.775Z,2.10
2022-09-02T07:54:14.783Z,1.90
2022-09-02T07:55:15.257Z,2.20
2022-09-02T07:56:15.759Z,1.80
2022-09-02T07:57:14.740Z,2.10
2022-09-02T07:58:16.130Z,1.70
2022-09-02T07:59:14.749Z,1.90
2022-09-02T08:00:14.701Z,2.20
2022-09-02T08:01:14.851Z,1.90
2022-09-02T08:02:14.714Z,1.90
2022-09-02T08:03:14.677Z,2.10
2022-09-02T08:04:14.681Z,2.00
2022-09-02T08:05:14.652Z,2.00
2022-09-02T08:06:14.642Z,2.00
2022-09-02T08:07:14.631Z,2.00
2022-09-02T08:08:14.613Z,2.20
2022-09-02T08:09:14.634Z,1.90
2022-09-02T08:10:14.597Z,1.90
2022-09-02T08:11:14.587Z,2.30
2022-09-02T08:12:17.723Z,2.20
2022-09-02T08:13:15.567Z,2.20
2022-09-02T08:14:14.575Z,2.00
2022-09-02T08:15:14.558Z,2.10
2022-09-02T08:16:14.606Z,1.90
2022-09-02T08:17:14.528Z,1.80
2022-09-02T08:18:19.144Z,2.00
2022-09-02T08:19:15.529Z,2.10
2022-09-02T08:20:14.492Z,2.00
2022-09-02T08:21:14.487Z,2.20
2022-09-02T08:22:14.485Z,1.90
2022-09-02T08:23:36.303Z,1.80
2022-09-02T08:24:16.481Z,2.00
2022-09-02T08:25:14.453Z,2.20
2022-09-02T08:26:14.447Z,2.00
2022-09-02T08:27:14.439Z,2.20
2022-09-02T08:28:14.455Z,2.00
2022-09-02T08:29:14.431Z,1.90
2022-09-02T08:30:14.399Z,1.90
2022-09-02T08:31:14.383Z,2.00
2022-09-02T08:32:14.421Z,2.00
2022-09-02T08:33:14.428Z,2.20
2022-09-02T08:34:14.377Z,2.10
2022-09-02T08:35:14.350Z,1.90
2022-09-02T08:36:14.339Z,2.10
2022-09-02T08:37:14.326Z,2.00
2022-09-02T08:38:14.318Z,2.00
2022-09-02T08:39:14.376Z,2.00
2022-09-02T08:40:14.373Z,1.90
2022-09-02T08:41:14.289Z,2.00
2022-09-02T08:42:14.276Z,1.90
2022-09-02T08:43:14.315Z,2.00
2022-09-02T08:44:14.279Z,1.90
2022-09-02T08:45:14.240Z,2.10
2022-09-02T08:46:14.327Z,1.90
2022-09-02T08:47:14.226Z,2.00
2022-09-02T08:48:14.220Z,2.00
2022-09-02T08:49:14.224Z,2.00
2022-09-02T08:50:14.210Z,2.10
2022-09-02T08:51:14.190Z,2.20
2022-09-02T08:52:17.664Z,1.90
2022-09-02T08:53:14.189Z,1.90
2022-09-02T08:54:14.180Z,1.90
2022-09-02T08:55:14.149Z,2.00
2022-09-02T08:56:14.155Z,2.10
2022-09-02T08:57:14.123Z,2.00
2022-09-02T08:58:14.112Z,1.90
2022-09-02T08:59:14.118Z,2.00
2022-09-02T09:00:14.084Z,2.10
2022-09-02T09:01:14.148Z,1.90
2022-09-02T09:02:17.607Z,1.90
2022-09-02T09:03:14.120Z,1.90
2022-09-02T09:04:14.071Z,1.90
2022-09-02T09:05:14.042Z,1.90
2022-09-02T09:06:14.036Z,2.00
2022-09-02T09:07:39.926Z,2.00
2022-09-02T09:08:14.849Z,2.00
2022-09-02T09:09:14.021Z,2.10
2022-09-02T09:10:14.001Z,1.80
2022-09-02T09:11:13.990Z,2.00
2022-09-02T09:12:13.979Z,1.90
2022-09-02T09:13:13.966Z,2.00
2022-09-02T09:14:13.977Z,1.70
2022-09-02T09:15:13.953Z,1.90
2022-09-02T09:16:13.951Z,2.20
2022-09-02T09:17:13.934Z,2.10
2022-09-02T09:18:13.982Z,1.90
2022-09-02T09:19:13.923Z,1.90
2022-09-02T09:20:13.895Z,1.90
2022-09-02T09:21:13.960Z,2.10
2022-09-02T09:22:13.871Z,1.80
2022-09-02T09:23:14.738Z,2.00
2022-09-02T09:24:13.870Z,1.80
2022-09-02T09:25:13.841Z,1.80
2022-09-02T09:26:13.829Z,1.90
2022-09-02T09:27:13.821Z,2.00
2022-09-02T09:28:13.816Z,1.90
2022-09-02T09:29:13.818Z,1.90
2022-09-02T09:30:15.549Z,2.20
2022-09-02T09:31:14.814Z,1.80
2022-09-02T09:32:13.796Z,2.00
2022-09-02T09:33:13.763Z,2.00
2022-09-02T09:34:13.763Z,1.80
2022-09-02T09:35:13.745Z,2.00
2022-09-02T09:36:13.763Z,2.30
2022-09-02T09:37:13.720Z,2.00
2022-09-02T09:38:13.722Z,2.00
2022-09-02T09:39:13.718Z,1.80
2022-09-02T09:40:13.713Z,2.10
2022-09-02T09:41:13.677Z,1.70
2022-09-02T09:42:13.671Z,1.90
2022-09-02T09:43:14.829Z,2.00
2022-09-02T09:44:13.672Z,1.80
2022-09-02T09:45:13.637Z,1.70
2022-09-02T09:46:13.701Z,1.90
2022-09-02T09:47:17.797Z,1.80
2022-09-02T09:48:14.613Z,2.50
2022-09-02T09:49:13.626Z,2.80
2022-09-02T09:50:13.599Z,1.90
2022-09-02T09:51:13.577Z,1.60
2022-09-02T09:52:13.576Z,1.60
2022-09-02T09:53:13.610Z,2.00
2022-09-02T09:54:13.572Z,1.70
2022-09-02T09:55:13.538Z,1.80
2022-09-02T09:56:13.543Z,1.70
2022-09-02T09:57:13.529Z,2.10
2022-09-02T09:58:13.513Z,2.20
2022-09-02T09:59:13.526Z,2.30
2022-09-02T10:00:13.507Z,1.90
2022-09-02T10:01:13.520Z,1.80
2022-09-02T10:02:13.630Z,1.80
2022-09-02T10:03:13.472Z,1.90
2022-09-02T10:04:39.348Z,1.90
2022-09-02T10:05:15.450Z,1.80
2022-09-02T10:06:13.440Z,1.90
2022-09-02T10:07:13.632Z,1.80
2022-09-02T10:08:15.320Z,1.60
2022-09-02T10:09:13.426Z,1.90
2022-09-02T10:10:13.392Z,1.60
2022-09-02T10:11:13.378Z,1.90
2022-09-02T10:12:13.385Z,2.00
2022-09-02T10:13:13.404Z,1.60
2022-09-02T10:14:13.390Z,1.60
2022-09-02T10:15:13.339Z,1.70
2022-09-02T10:16:13.390Z,1.60
2022-09-02T10:17:13.346Z,1.60
2022-09-02T10:18:13.321Z,1.70
2022-09-02T10:19:13.312Z,1.80
2022-09-02T10:20:13.301Z,2.00
2022-09-02T10:21:15.302Z,2.40
2022-09-02T10:22:14.282Z,2.00
2022-09-02T10:23:13.278Z,1.70
2022-09-02T10:24:13.277Z,1.80
2022-09-02T10:25:13.250Z,1.80
2022-09-02T10:26:13.293Z,1.50
2022-09-02T10:27:13.229Z,1.90
2022-09-02T10:28:13.212Z,1.70
2022-09-02T10:29:14.231Z,1.50
2022-09-02T10:30:13.203Z,1.80
2022-09-02T10:31:13.213Z,1.70
2022-09-02T10:32:13.182Z,1.90
2022-09-02T10:33:13.167Z,1.60
2022-09-02T10:34:13.174Z,1.60
2022-09-02T10:35:13.141Z,1.50
2022-09-02T10:36:18.923Z,1.70
2022-09-02T10:37:15.130Z,1.60
2022-09-02T10:38:13.120Z,1.60
2022-09-02T10:39:13.125Z,1.70
2022-09-02T10:40:13.150Z,1.80
2022-09-02T10:41:13.095Z,2.00
2022-09-02T10:42:13.084Z,1.60
2022-09-02T10:43:13.090Z,1.60
2022-09-02T10:44:13.076Z,1.70
2022-09-02T10:45:13.043Z,1.70
2022-09-02T10:46:13.097Z,1.80
2022-09-02T10:47:13.037Z,1.60
2022-09-02T10:48:13.021Z,1.70
2022-09-02T10:49:13.050Z,2.60
2022-09-02T10:50:13.007Z,2.00
2022-09-02T10:51:12.985Z,2.80
2022-09-02T10:52:13.015Z,2.20
2022-09-02T10:53:12.974Z,2.30
2022-09-02T10:54:12.980Z,2.20
2022-09-02T10:55:12.941Z,1.80
2022-09-02T10:56:12.940Z,1.80
2022-09-02T10:57:12.930Z,1.60
2022-09-02T10:58:12.925Z,1.90
2022-09-02T10:59:12.935Z,1.60
2022-09-02T11:00:13.043Z,1.80
2022-09-02T11:01:13.008Z,1.40
2022-09-02T11:02:12.880Z,1.70
2022-09-02T11:03:12.924Z,1.60
2022-09-02T11:04:12.896Z,1.60
2022-09-02T11:05:12.857Z,1.50
2022-09-02T11:06:12.854Z,1.60
2022-09-02T11:07:12.844Z,1.60
2022-09-02T11:08:12.825Z,1.50
2022-09-02T11:09:12.833Z,1.80
2022-09-02T11:10:12.919Z,1.60
2022-09-02T11:11:12.794Z,1.70
2022-09-02T11:12:12.794Z,1.70
2022-09-02T11:13:12.773Z,1.80
2022-09-02T11:14:12.785Z,1.70
2022-09-02T11:15:12.749Z,1.60
2022-09-02T11:16:12.813Z,1.60
2022-09-02T11:17:13.231Z,1.70
2022-09-02T11:19:12.738Z,1.60
2022-09-02T11:20:12.748Z,1.50
2022-09-02T11:21:12.713Z,1.50
2022-09-02T11:22:12.680Z,2.10
2022-09-02T11:23:12.671Z,2.20
2022-09-02T11:24:12.690Z,2.80
2022-09-02T11:25:12.649Z,2.30
2022-09-02T11:26:12.638Z,3.00
2022-09-02T11:27:25.824Z,2.50
2022-09-02T11:28:14.477Z,2.10
2022-09-02T11:29:12.620Z,1.90
2022-09-02T11:30:12.670Z,1.70
2022-09-02T11:31:12.581Z,1.70
2022-09-02T11:32:12.579Z,1.60
2022-09-02T11:33:12.569Z,1.50
2022-09-02T11:34:12.579Z,1.80
2022-09-02T11:35:12.549Z,1.80
2022-09-02T11:36:12.539Z,1.70
2022-09-02T11:37:13.185Z,1.70
2022-09-02T11:38:12.523Z,1.80
2022-09-02T11:39:12.529Z,1.60
2022-09-02T11:40:33.152Z,1.50
2022-09-02T11:42:14.594Z,1.70
2022-09-02T11:43:12.468Z,1.60
2022-09-02T11:44:13.479Z,1.70
2022-09-02T11:45:12.491Z,1.80
2022-09-02T11:46:12.501Z,1.40
2022-09-02T11:47:12.435Z,1.50
2022-09-02T11:48:12.423Z,1.70
2022-09-02T11:49:12.429Z,1.90
2022-09-02T11:50:12.430Z,1.50
2022-09-02T11:51:12.452Z,1.50
2022-09-02T11:52:12.432Z,1.60
2022-09-02T11:53:12.372Z,1.70
2022-09-02T11:54:12.385Z,1.60
2022-09-02T11:55:12.348Z,1.70
2022-09-02T11:56:12.358Z,1.50
2022-09-02T11:57:12.343Z,1.60
2022-09-02T11:58:12.324Z,1.60
2022-09-02T11:59:12.345Z,1.60
2022-09-02T12:00:12.306Z,1.50
2022-09-02T12:01:13.712Z,1.50
2022-09-02T12:02:12.290Z,1.40
2022-09-02T12:03:38.869Z,1.30
2022-09-02T12:04:56.031Z,1.50
2022-09-02T12:05:14.385Z,1.50
2022-09-02T12:06:12.335Z,1.50
2022-09-02T12:07:12.332Z,1.60
2022-09-02T12:08:12.239Z,1.60
2022-09-02T12:09:12.237Z,1.50
2022-09-02T12:10:12.210Z,1.50
2022-09-02T12:11:12.202Z,1.40
2022-09-02T12:12:12.187Z,1.60
2022-09-02T12:13:12.199Z,1.50
2022-09-02T12:14:12.193Z,1.70
2022-09-02T12:15:12.151Z,1.50
2022-09-02T12:16:12.211Z,1.60
2022-09-02T12:17:12.199Z,1.60
2022-09-02T12:18:12.127Z,1.50
2022-09-02T12:19:13.084Z,1.50
2022-09-02T12:20:12.103Z,1.30
2022-09-02T12:21:18.376Z,1.40
2022-09-02T12:22:13.087Z,1.40
2022-09-02T12:23:12.070Z,1.60
2022-09-02T12:24:12.109Z,1.50
2022-09-02T12:25:12.061Z,1.80
2022-09-02T12:26:15.861Z,1.70
2022-09-02T12:27:12.039Z,1.70
2022-09-02T12:28:12.034Z,1.90
2022-09-02T12:29:13.041Z,1.50
2022-09-02T12:30:12.017Z,1.50
2022-09-02T12:31:12.016Z,1.40
2022-09-02T12:32:12.003Z,1.60
2022-09-02T12:33:11.983Z,1.50
2022-09-02T12:34:11.968Z,1.50
2022-09-02T12:35:11.968Z,1.50
2022-09-02T12:36:12.954Z,1.50
2022-09-02T12:37:11.946Z,1.40
2022-09-02T12:38:11.935Z,1.60
2022-09-02T12:39:11.926Z,1.50
2022-09-02T12:40:13.093Z,1.50
2022-09-02T12:41:12.310Z,1.40
2022-09-02T12:42:11.891Z,1.40
2022-09-02T12:43:11.885Z,1.50
2022-09-02T12:44:11.875Z,1.40
2022-09-02T12:45:11.883Z,1.60
2022-09-02T12:46:11.954Z,1.30
2022-09-02T12:47:11.842Z,1.60
2022-09-02T12:48:11.853Z,1.60
2022-09-02T12:49:11.820Z,1.50
2022-09-02T12:50:11.830Z,1.60
2022-09-02T12:51:12.860Z,1.50
2022-09-02T12:52:11.799Z,1.60
2022-09-02T12:53:11.789Z,1.50
2022-09-02T12:54:11.778Z,1.40
2022-09-02T12:55:11.786Z,1.40
2022-09-02T12:56:12.742Z,1.60
2022-09-02T12:57:11.743Z,1.50
2022-09-02T12:58:11.732Z,1.30
2022-09-02T12:59:11.729Z,1.60
2022-09-02T13:00:11.725Z,1.30
2022-09-02T13:01:11.707Z,1.60
2022-09-02T13:02:11.693Z,1.60
2022-09-02T13:03:11.739Z,1.50
2022-09-02T13:04:11.671Z,1.50
2022-09-02T13:05:11.676Z,1.40
2022-09-02T13:06:11.649Z,1.60
2022-09-02T13:07:11.635Z,1.60
2022-09-02T13:08:11.623Z,1.40
2022-09-02T13:09:11.649Z,1.60
2022-09-02T13:10:11.625Z,1.50
2022-09-02T13:11:11.594Z,1.50
2022-09-02T13:12:11.583Z,1.40
2022-09-02T13:13:11.575Z,1.50
2022-09-02T13:14:11.561Z,1.50
2022-09-02T13:15:11.572Z,1.50
2022-09-02T13:16:18.494Z,1.50
2022-09-02T13:17:35.722Z,1.70
2022-09-02T13:18:13.532Z,1.70
2022-09-02T13:19:11.635Z,1.50
2022-09-02T13:20:11.531Z,1.50
2022-09-02T13:21:11.502Z,1.60